sensor_id;sensor_type;location;lat;lon;timestamp;temperature;humidity
11093;DHT22;5600;50.864;6.102;2024-01-06T00:02:01;6.40;99.90
11093;DHT22;5600;50.864;6.102;2024-01-06T00:05:02;6.40;99.90
11093;DHT22;5600;50.864;6.102;2024-01-06T00:08:03;6.40;99.90
11093;DHT22;5600;50.864;6.102;2024-01-06T00:11:04;6.40;99.90
11093;DHT22;5600;50.864;6.102;2024-01-06T00:14:05;6.40;99.90
11093;DHT22;5600;50.864;6.102;2024-01-06T00:17:06;6.40;99.90
11093;DHT22;5600;50.864;6.102;2024-01-06T00:20:07;6.40;99.90
11093;DHT22;5600;50.864;6.102;2024-01-06T00:23:08;6.40;99.90
11093;DHT22;5600;50.864;6.102;2024-01-06T00:26:09;6.50;99.90
11093;DHT22;5600;50.864;6.102;2024-01-06T00:29:10;6.50;99.90
11093;DHT22;5600;50.864;6.102;2024-01-06T00:32:11;6.50;99.90
11093;DHT22;5600;50.864;6.102;2024-01-06T00:35:12;6.50;99.90
11093;DHT22;5600;50.864;6.102;2024-01-06T00:38:13;6.50;99.90
11093;DHT22;5600;50.864;6.102;2024-01-06T00:41:13;6.50;99.90
11093;DHT22;5600;50.864;6.102;2024-01-06T00:44:14;6.50;99.90
11093;DHT22;5600;50.864;6.102;2024-01-06T00:47:15;6.60;99.90
11093;DHT22;5600;50.864;6.102;2024-01-06T00:50:16;6.70;99.90
11093;DHT22;5600;50.864;6.102;2024-01-06T00:53:19;6.60;99.90
11093;DHT22;5600;50.864;6.102;2024-01-06T00:56:19;6.60;99.90
11093;DHT22;5600;50.864;6.102;2024-01-06T00:59:20;6.70;99.90
11093;DHT22;5600;50.864;6.102;2024-01-06T01:02:21;6.70;99.90
11093;DHT22;5600;50.864;6.102;2024-01-06T01:05:22;6.70;99.90
11093;DHT22;5600;50.864;6.102;2024-01-06T01:08:22;6.70;99.90
11093;DHT22;5600;50.864;6.102;2024-01-06T01:11:23;6.80;99.90
11093;DHT22;5600;50.864;6.102;2024-01-06T01:14:24;6.80;99.90
11093;DHT22;5600;50.864;6.102;2024-01-06T01:17:24;6.90;99.90
11093;DHT22;5600;50.864;6.102;2024-01-06T01:20:25;6.90;99.90
11093;DHT22;5600;50.864;6.102;2024-01-06T01:23:26;6.90;99.90
11093;DHT22;5600;50.864;6.102;2024-01-06T01:26:27;6.80;99.90
11093;DHT22;5600;50.864;6.102;2024-01-06T01:29:28;8.00;99.90
11093;DHT22;5600;50.864;6.102;2024-01-06T01:32:28;6.90;99.90
11093;DHT22;5600;50.864;6.102;2024-01-06T01:35:29;6.90;99.90
11093;DHT22;5600;50.864;6.102;2024-01-06T01:38:30;6.90;99.90
11093;DHT22;5600;50.864;6.102;2024-01-06T01:41:31;6.90;99.90
11093;DHT22;5600;50.864;6.102;2024-01-06T01:44:31;7.00;99.90
11093;DHT22;5600;50.864;6.102;2024-01-06T01:47:32;6.90;99.90
11093;DHT22;5600;50.864;6.102;2024-01-06T01:50:33;6.90;99.90
11093;DHT22;5600;50.864;6.102;2024-01-06T01:53:34;7.00;99.90
11093;DHT22;5600;50.864;6.102;2024-01-06T01:56:35;7.00;99.90
11093;DHT22;5600;50.864;6.102;2024-01-06T01:59:36;7.00;99.90
11093;DHT22;5600;50.864;6.102;2024-01-06T02:02:37;7.00;99.90
11093;DHT22;5600;50.864;6.102;2024-01-06T02:05:38;7.00;99.90
11093;DHT22;5600;50.864;6.102;2024-01-06T02:08:39;7.00;99.90
11093;DHT22;5600;50.864;6.102;2024-01-06T02:11:40;6.90;99.90
11093;DHT22;5600;50.864;6.102;2024-01-06T02:14:41;6.90;99.90
11093;DHT22;5600;50.864;6.102;2024-01-06T02:17:43;6.90;99.90
11093;DHT22;5600;50.864;6.102;2024-01-06T02:20:44;7.00;99.90
11093;DHT22;5600;50.864;6.102;2024-01-06T02:23:47;6.90;99.90
11093;DHT22;5600;50.864;6.102;2024-01-06T02:26:48;6.90;99.90
11093;DHT22;5600;50.864;6.102;2024-01-06T02:29:48;7.00;99.90
11093;DHT22;5600;50.864;6.102;2024-01-06T02:32:49;6.90;99.90
11093;DHT22;5600;50.864;6.102;2024-01-06T02:35:50;7.00;99.90
11093;DHT22;5600;50.864;6.102;2024-01-06T02:38:51;7.00;99.90
11093;DHT22;5600;50.864;6.102;2024-01-06T02:41:51;7.00;99.90
11093;DHT22;5600;50.864;6.102;2024-01-06T02:44:52;7.00;99.90
11093;DHT22;5600;50.864;6.102;2024-01-06T02:47:53;7.00;99.90
11093;DHT22;5600;50.864;6.102;2024-01-06T02:50:53;7.00;99.90
11093;DHT22;5600;50.864;6.102;2024-01-06T02:53:54;6.90;99.90
11093;DHT22;5600;50.864;6.102;2024-01-06T02:56:55;7.00;99.90
11093;DHT22;5600;50.864;6.102;2024-01-06T02:59:56;7.00;99.90
11093;DHT22;5600;50.864;6.102;2024-01-06T03:02:56;6.90;99.90
11093;DHT22;5600;50.864;6.102;2024-01-06T03:05:57;6.90;99.90
11093;DHT22;5600;50.864;6.102;2024-01-06T03:08:58;6.90;99.90
11093;DHT22;5600;50.864;6.102;2024-01-06T03:11:58;6.90;99.90
11093;DHT22;5600;50.864;6.102;2024-01-06T03:14:59;6.90;99.90
11093;DHT22;5600;50.864;6.102;2024-01-06T03:18:00;6.90;99.90
11093;DHT22;5600;50.864;6.102;2024-01-06T03:21:00;6.90;99.90
11093;DHT22;5600;50.864;6.102;2024-01-06T03:24:01;6.90;99.90
11093;DHT22;5600;50.864;6.102;2024-01-06T03:27:02;6.80;99.90
11093;DHT22;5600;50.864;6.102;2024-01-06T03:30:03;6.80;99.90
11093;DHT22;5600;50.864;6.102;2024-01-06T03:33:05;6.70;99.90
11093;DHT22;5600;50.864;6.102;2024-01-06T03:36:06;6.80;99.90
11093;DHT22;5600;50.864;6.102;2024-01-06T03:39:07;6.90;99.90
11093;DHT22;5600;50.864;6.102;2024-01-06T03:42:08;6.80;99.90
11093;DHT22;5600;50.864;6.102;2024-01-06T03:45:09;6.70;99.90
11093;DHT22;5600;50.864;6.102;2024-01-06T03:48:09;6.70;99.90
11093;DHT22;5600;50.864;6.102;2024-01-06T03:51:11;6.60;99.90
11093;DHT22;5600;50.864;6.102;2024-01-06T03:54:12;6.60;99.90
11093;DHT22;5600;50.864;6.102;2024-01-06T03:57:13;6.60;99.90
11093;DHT22;5600;50.864;6.102;2024-01-06T04:00:14;6.40;99.90
11093;DHT22;5600;50.864;6.102;2024-01-06T04:03:15;6.40;99.90
11093;DHT22;5600;50.864;6.102;2024-01-06T04:06:16;6.40;99.90
11093;DHT22;5600;50.864;6.102;2024-01-06T04:09:16;6.40;99.90
11093;DHT22;5600;50.864;6.102;2024-01-06T04:12:17;6.40;99.90
11093;DHT22;5600;50.864;6.102;2024-01-06T04:15:18;6.40;99.90
11093;DHT22;5600;50.864;6.102;2024-01-06T04:18:19;6.40;99.90
11093;DHT22;5600;50.864;6.102;2024-01-06T04:21:19;6.40;99.90
11093;DHT22;5600;50.864;6.102;2024-01-06T04:24:20;6.30;99.90
11093;DHT22;5600;50.864;6.102;2024-01-06T04:27:21;6.20;99.90
11093;DHT22;5600;50.864;6.102;2024-01-06T04:30:21;6.20;99.90
11093;DHT22;5600;50.864;6.102;2024-01-06T04:33:22;6.10;99.90
11093;DHT22;5600;50.864;6.102;2024-01-06T04:36:23;6.10;99.90
11093;DHT22;5600;50.864;6.102;2024-01-06T04:39:24;6.20;99.90
11093;DHT22;5600;50.864;6.102;2024-01-06T04:42:24;6.10;99.90
11093;DHT22;5600;50.864;6.102;2024-01-06T04:45:25;6.10;99.90
11093;DHT22;5600;50.864;6.102;2024-01-06T04:48:26;6.10;99.90
11093;DHT22;5600;50.864;6.102;2024-01-06T04:51:27;6.10;99.90
11093;DHT22;5600;50.864;6.102;2024-01-06T04:54:27;6.10;99.90
11093;DHT22;5600;50.864;6.102;2024-01-06T04:57:28;6.00;99.90
11093;DHT22;5600;50.864;6.102;2024-01-06T05:00:29;6.00;99.90
11093;DHT22;5600;50.864;6.102;2024-01-06T05:03:29;6.00;99.90
11093;DHT22;5600;50.864;6.102;2024-01-06T05:06:30;6.00;99.90
11093;DHT22;5600;50.864;6.102;2024-01-06T05:09:31;6.00;99.90
11093;DHT22;5600;50.864;6.102;2024-01-06T05:12:31;5.90;99.90
11093;DHT22;5600;50.864;6.102;2024-01-06T05:15:32;5.90;99.90
11093;DHT22;5600;50.864;6.102;2024-01-06T05:18:33;5.90;99.90
11093;DHT22;5600;50.864;6.102;2024-01-06T05:21:34;6.00;99.90
11093;DHT22;5600;50.864;6.102;2024-01-06T05:24:35;6.00;99.90
11093;DHT22;5600;50.864;6.102;2024-01-06T05:27:35;6.00;99.90
11093;DHT22;5600;50.864;6.102;2024-01-06T05:30:36;6.00;99.90
11093;DHT22;5600;50.864;6.102;2024-01-06T05:33:37;5.90;99.90
11093;DHT22;5600;50.864;6.102;2024-01-06T05:36:37;5.80;99.90
11093;DHT22;5600;50.864;6.102;2024-01-06T05:39:38;5.80;99.90
11093;DHT22;5600;50.864;6.102;2024-01-06T05:42:40;5.80;99.90
11093;DHT22;5600;50.864;6.102;2024-01-06T05:45:41;5.80;99.90
11093;DHT22;5600;50.864;6.102;2024-01-06T05:48:44;5.70;99.90
11093;DHT22;5600;50.864;6.102;2024-01-06T05:51:45;5.70;99.90
11093;DHT22;5600;50.864;6.102;2024-01-06T05:54:46;5.70;99.90
11093;DHT22;5600;50.864;6.102;2024-01-06T05:57:47;5.80;99.90
11093;DHT22;5600;50.864;6.102;2024-01-06T06:00:47;5.70;99.90
11093;DHT22;5600;50.864;6.102;2024-01-06T06:03:49;5.70;99.90
11093;DHT22;5600;50.864;6.102;2024-01-06T06:06:50;5.70;99.90
11093;DHT22;5600;50.864;6.102;2024-01-06T06:09:51;5.70;99.90
11093;DHT22;5600;50.864;6.102;2024-01-06T06:12:53;5.60;99.90
11093;DHT22;5600;50.864;6.102;2024-01-06T06:15:54;5.70;99.90
11093;DHT22;5600;50.864;6.102;2024-01-06T06:18:55;5.60;99.90
11093;DHT22;5600;50.864;6.102;2024-01-06T06:21:56;5.60;99.90
11093;DHT22;5600;50.864;6.102;2024-01-06T06:24:57;5.70;99.90
11093;DHT22;5600;50.864;6.102;2024-01-06T06:27:58;5.60;99.90
11093;DHT22;5600;50.864;6.102;2024-01-06T06:30:59;5.60;99.90
11093;DHT22;5600;50.864;6.102;2024-01-06T06:33:59;5.60;99.90
11093;DHT22;5600;50.864;6.102;2024-01-06T06:37:00;5.50;99.90
11093;DHT22;5600;50.864;6.102;2024-01-06T06:40:01;5.40;99.90
11093;DHT22;5600;50.864;6.102;2024-01-06T06:43:02;5.40;99.90
11093;DHT22;5600;50.864;6.102;2024-01-06T06:46:03;5.50;99.90
11093;DHT22;5600;50.864;6.102;2024-01-06T06:49:04;5.40;99.90
11093;DHT22;5600;50.864;6.102;2024-01-06T06:52:04;5.30;99.90
11093;DHT22;5600;50.864;6.102;2024-01-06T06:55:07;5.20;99.90
11093;DHT22;5600;50.864;6.102;2024-01-06T06:58:08;5.20;99.90
11093;DHT22;5600;50.864;6.102;2024-01-06T07:01:09;5.20;99.90
11093;DHT22;5600;50.864;6.102;2024-01-06T07:04:09;3.60;99.90
11093;DHT22;5600;50.864;6.102;2024-01-06T07:07:10;5.10;99.90
11093;DHT22;5600;50.864;6.102;2024-01-06T07:10:11;5.00;99.90
11093;DHT22;5600;50.864;6.102;2024-01-06T07:13:11;4.90;99.90
11093;DHT22;5600;50.864;6.102;2024-01-06T07:16:12;4.90;99.90
11093;DHT22;5600;50.864;6.102;2024-01-06T07:19:13;4.80;99.90
11093;DHT22;5600;50.864;6.102;2024-01-06T07:22:14;4.80;99.90
11093;DHT22;5600;50.864;6.102;2024-01-06T07:25:16;4.90;99.90
11093;DHT22;5600;50.864;6.102;2024-01-06T07:28:17;4.80;99.90
11093;DHT22;5600;50.864;6.102;2024-01-06T07:31:18;4.80;99.90
11093;DHT22;5600;50.864;6.102;2024-01-06T07:34:19;4.80;99.90
11093;DHT22;5600;50.864;6.102;2024-01-06T07:37:19;4.70;99.90
11093;DHT22;5600;50.864;6.102;2024-01-06T07:40:20;4.70;99.90
11093;DHT22;5600;50.864;6.102;2024-01-06T07:43:21;4.70;99.90
11093;DHT22;5600;50.864;6.102;2024-01-06T07:46:22;4.70;99.90
11093;DHT22;5600;50.864;6.102;2024-01-06T07:49:22;4.70;99.90
11093;DHT22;5600;50.864;6.102;2024-01-06T07:52:23;4.70;99.90
11093;DHT22;5600;50.864;6.102;2024-01-06T07:55:24;4.70;99.90
11093;DHT22;5600;50.864;6.102;2024-01-06T07:58:24;4.80;99.90
11093;DHT22;5600;50.864;6.102;2024-01-06T08:01:25;4.70;99.90
11093;DHT22;5600;50.864;6.102;2024-01-06T08:04:26;4.50;99.90
11093;DHT22;5600;50.864;6.102;2024-01-06T08:07:26;4.60;99.90
11093;DHT22;5600;50.864;6.102;2024-01-06T08:10:27;4.50;99.90
11093;DHT22;5600;50.864;6.102;2024-01-06T08:13:28;4.50;99.90
11093;DHT22;5600;50.864;6.102;2024-01-06T08:16:28;4.60;99.90
11093;DHT22;5600;50.864;6.102;2024-01-06T08:19:29;4.60;99.90
11093;DHT22;5600;50.864;6.102;2024-01-06T08:22:32;4.50;99.90
11093;DHT22;5600;50.864;6.102;2024-01-06T08:25:33;4.50;99.90
11093;DHT22;5600;50.864;6.102;2024-01-06T08:28:33;4.50;99.90
11093;DHT22;5600;50.864;6.102;2024-01-06T08:31:34;4.50;99.90
11093;DHT22;5600;50.864;6.102;2024-01-06T08:34:35;4.60;99.90
11093;DHT22;5600;50.864;6.102;2024-01-06T08:37:36;4.60;99.90
11093;DHT22;5600;50.864;6.102;2024-01-06T08:40:36;4.60;99.90
11093;DHT22;5600;50.864;6.102;2024-01-06T08:43:37;4.50;99.90
11093;DHT22;5600;50.864;6.102;2024-01-06T08:46:38;4.50;99.90
11093;DHT22;5600;50.864;6.102;2024-01-06T08:49:39;4.50;99.90
11093;DHT22;5600;50.864;6.102;2024-01-06T08:52:39;4.50;99.90
11093;DHT22;5600;50.864;6.102;2024-01-06T08:55:40;4.60;99.90
11093;DHT22;5600;50.864;6.102;2024-01-06T08:58:41;4.60;99.90
11093;DHT22;5600;50.864;6.102;2024-01-06T09:01:41;4.60;99.90
11093;DHT22;5600;50.864;6.102;2024-01-06T09:04:42;4.70;99.90
11093;DHT22;5600;50.864;6.102;2024-01-06T09:07:43;4.70;99.90
11093;DHT22;5600;50.864;6.102;2024-01-06T09:10:49;4.70;99.90
11093;DHT22;5600;50.864;6.102;2024-01-06T09:13:52;4.70;99.90
11093;DHT22;5600;50.864;6.102;2024-01-06T09:16:53;4.60;99.90
11093;DHT22;5600;50.864;6.102;2024-01-06T09:19:53;4.60;99.90
11093;DHT22;5600;50.864;6.102;2024-01-06T09:22:54;4.70;99.90
11093;DHT22;5600;50.864;6.102;2024-01-06T09:25:55;4.60;99.90
11093;DHT22;5600;50.864;6.102;2024-01-06T09:28:56;4.60;99.90
11093;DHT22;5600;50.864;6.102;2024-01-06T09:31:56;4.50;99.90
11093;DHT22;5600;50.864;6.102;2024-01-06T09:34:57;4.60;99.90
11093;DHT22;5600;50.864;6.102;2024-01-06T09:37:58;4.50;99.90
11093;DHT22;5600;50.864;6.102;2024-01-06T09:40:58;4.50;99.90
11093;DHT22;5600;50.864;6.102;2024-01-06T09:43:59;4.60;99.90
11093;DHT22;5600;50.864;6.102;2024-01-06T09:47:01;4.60;99.90
11093;DHT22;5600;50.864;6.102;2024-01-06T09:50:06;4.70;99.90
11093;DHT22;5600;50.864;6.102;2024-01-06T09:53:13;4.60;99.90
11093;DHT22;5600;50.864;6.102;2024-01-06T09:56:15;4.50;99.90
11093;DHT22;5600;50.864;6.102;2024-01-06T09:59:17;4.50;99.90
11093;DHT22;5600;50.864;6.102;2024-01-06T10:02:19;4.60;99.90
11093;DHT22;5600;50.864;6.102;2024-01-06T10:05:23;4.60;99.90
11093;DHT22;5600;50.864;6.102;2024-01-06T10:08:25;4.60;99.90
11093;DHT22;5600;50.864;6.102;2024-01-06T10:11:27;4.60;99.90
11093;DHT22;5600;50.864;6.102;2024-01-06T10:14:27;4.70;99.90
11093;DHT22;5600;50.864;6.102;2024-01-06T10:17:28;4.60;99.90
11093;DHT22;5600;50.864;6.102;2024-01-06T10:20:29;4.60;99.90
11093;DHT22;5600;50.864;6.102;2024-01-06T10:23:31;4.60;99.90
11093;DHT22;5600;50.864;6.102;2024-01-06T10:26:32;4.50;99.90
11093;DHT22;5600;50.864;6.102;2024-01-06T10:29:33;4.60;99.90
11093;DHT22;5600;50.864;6.102;2024-01-06T10:32:35;4.60;99.90
11093;DHT22;5600;50.864;6.102;2024-01-06T10:35:40;4.60;99.90
11093;DHT22;5600;50.864;6.102;2024-01-06T10:38:41;4.70;99.90
11093;DHT22;5600;50.864;6.102;2024-01-06T10:41:43;4.70;99.90
11093;DHT22;5600;50.864;6.102;2024-01-06T10:44:45;4.70;99.90
11093;DHT22;5600;50.864;6.102;2024-01-06T10:47:48;4.80;99.90
11093;DHT22;5600;50.864;6.102;2024-01-06T10:50:50;4.80;99.90
11093;DHT22;5600;50.864;6.102;2024-01-06T10:53:52;4.80;99.90
11093;DHT22;5600;50.864;6.102;2024-01-06T10:56:53;4.70;99.90
11093;DHT22;5600;50.864;6.102;2024-01-06T10:59:58;4.70;99.90
11093;DHT22;5600;50.864;6.102;2024-01-06T11:03:00;4.70;99.90
11093;DHT22;5600;50.864;6.102;2024-01-06T11:06:01;4.80;99.90
11093;DHT22;5600;50.864;6.102;2024-01-06T11:09:16;4.70;99.90
11093;DHT22;5600;50.864;6.102;2024-01-06T11:12:20;4.70;99.90
11093;DHT22;5600;50.864;6.102;2024-01-06T11:15:44;4.60;99.90
11093;DHT22;5600;50.864;6.102;2024-01-06T11:18:45;4.70;99.90
11093;DHT22;5600;50.864;6.102;2024-01-06T11:21:46;4.70;99.90
11093;DHT22;5600;50.864;6.102;2024-01-06T11:24:48;4.70;99.90
11093;DHT22;5600;50.864;6.102;2024-01-06T11:27:50;4.80;99.90
11093;DHT22;5600;50.864;6.102;2024-01-06T11:31:05;4.90;99.90
11093;DHT22;5600;50.864;6.102;2024-01-06T11:34:17;5.10;99.90
11093;DHT22;5600;50.864;6.102;2024-01-06T11:40:46;5.30;99.90
11093;DHT22;5600;50.864;6.102;2024-01-06T11:43:47;5.30;99.90
11093;DHT22;5600;50.864;6.102;2024-01-06T11:46:48;5.30;99.90
11093;DHT22;5600;50.864;6.102;2024-01-06T11:49:54;5.40;99.90
11093;DHT22;5600;50.864;6.102;2024-01-06T11:52:56;5.30;99.90
11093;DHT22;5600;50.864;6.102;2024-01-06T11:55:57;5.20;99.90
11093;DHT22;5600;50.864;6.102;2024-01-06T11:58:57;5.20;99.90
11093;DHT22;5600;50.864;6.102;2024-01-06T12:01:58;5.00;99.90
11093;DHT22;5600;50.864;6.102;2024-01-06T12:04:59;5.00;99.90
11093;DHT22;5600;50.864;6.102;2024-01-06T12:08:01;4.80;99.90
11093;DHT22;5600;50.864;6.102;2024-01-06T12:11:04;4.80;99.90
11093;DHT22;5600;50.864;6.102;2024-01-06T12:14:05;4.70;99.90
11093;DHT22;5600;50.864;6.102;2024-01-06T12:17:06;4.70;99.90
11093;DHT22;5600;50.864;6.102;2024-01-06T12:20:07;4.60;99.90
11093;DHT22;5600;50.864;6.102;2024-01-06T12:23:09;4.60;99.90
11093;DHT22;5600;50.864;6.102;2024-01-06T12:26:10;4.70;99.90
11093;DHT22;5600;50.864;6.102;2024-01-06T12:29:10;4.70;99.90
11093;DHT22;5600;50.864;6.102;2024-01-06T12:32:12;4.80;99.90
11093;DHT22;5600;50.864;6.102;2024-01-06T12:35:16;4.80;99.90
11093;DHT22;5600;50.864;6.102;2024-01-06T12:38:20;4.80;99.90
11093;DHT22;5600;50.864;6.102;2024-01-06T12:41:20;4.70;99.90
11093;DHT22;5600;50.864;6.102;2024-01-06T12:44:21;4.60;99.90
11093;DHT22;5600;50.864;6.102;2024-01-06T12:47:23;4.50;99.90
11093;DHT22;5600;50.864;6.102;2024-01-06T12:50:24;4.50;99.90
11093;DHT22;5600;50.864;6.102;2024-01-06T12:53:25;4.50;99.90
11093;DHT22;5600;50.864;6.102;2024-01-06T12:56:25;4.50;99.90
11093;DHT22;5600;50.864;6.102;2024-01-06T12:59:26;4.50;99.90
11093;DHT22;5600;50.864;6.102;2024-01-06T13:02:27;4.50;99.90
11093;DHT22;5600;50.864;6.102;2024-01-06T13:05:28;4.60;99.90
11093;DHT22;5600;50.864;6.102;2024-01-06T13:08:28;4.60;99.90
11093;DHT22;5600;50.864;6.102;2024-01-06T13:11:29;4.50;99.90
11093;DHT22;5600;50.864;6.102;2024-01-06T13:14:30;4.40;99.90
11093;DHT22;5600;50.864;6.102;2024-01-06T13:17:32;4.40;99.90
11093;DHT22;5600;50.864;6.102;2024-01-06T13:20:32;4.40;99.90
11093;DHT22;5600;50.864;6.102;2024-01-06T13:23:33;4.30;99.90
11093;DHT22;5600;50.864;6.102;2024-01-06T13:26:34;4.30;99.90
11093;DHT22;5600;50.864;6.102;2024-01-06T13:29:36;4.40;99.90
11093;DHT22;5600;50.864;6.102;2024-01-06T13:32:37;4.30;99.90
11093;DHT22;5600;50.864;6.102;2024-01-06T13:35:38;4.20;99.90
11093;DHT22;5600;50.864;6.102;2024-01-06T13:38:39;4.30;99.90
11093;DHT22;5600;50.864;6.102;2024-01-06T13:41:40;4.10;99.90
11093;DHT22;5600;50.864;6.102;2024-01-06T13:44:40;4.10;99.90
11093;DHT22;5600;50.864;6.102;2024-01-06T13:47:41;4.20;99.90
11093;DHT22;5600;50.864;6.102;2024-01-06T13:50:44;4.20;99.90
11093;DHT22;5600;50.864;6.102;2024-01-06T13:53:46;4.10;99.90
11093;DHT22;5600;50.864;6.102;2024-01-06T13:56:47;4.20;99.90
11093;DHT22;5600;50.864;6.102;2024-01-06T13:59:48;4.10;99.90
11093;DHT22;5600;50.864;6.102;2024-01-06T14:02:49;4.20;99.90
11093;DHT22;5600;50.864;6.102;2024-01-06T14:05:49;4.10;99.90
11093;DHT22;5600;50.864;6.102;2024-01-06T14:08:51;4.00;99.90
11093;DHT22;5600;50.864;6.102;2024-01-06T14:11:55;4.10;99.90
11093;DHT22;5600;50.864;6.102;2024-01-06T14:14:56;4.10;99.90
11093;DHT22;5600;50.864;6.102;2024-01-06T14:17:56;4.10;99.90
11093;DHT22;5600;50.864;6.102;2024-01-06T14:20:57;4.10;99.90
11093;DHT22;5600;50.864;6.102;2024-01-06T14:23:58;4.00;99.90
11093;DHT22;5600;50.864;6.102;2024-01-06T14:27:00;4.10;99.90
11093;DHT22;5600;50.864;6.102;2024-01-06T14:30:01;4.00;99.90
11093;DHT22;5600;50.864;6.102;2024-01-06T14:33:02;4.10;99.90
11093;DHT22;5600;50.864;6.102;2024-01-06T14:36:03;4.20;99.90
11093;DHT22;5600;50.864;6.102;2024-01-06T14:39:04;4.20;99.90
11093;DHT22;5600;50.864;6.102;2024-01-06T14:42:07;4.10;99.90
11093;DHT22;5600;50.864;6.102;2024-01-06T14:45:08;4.10;99.90
11093;DHT22;5600;50.864;6.102;2024-01-06T14:48:09;4.10;99.90
11093;DHT22;5600;50.864;6.102;2024-01-06T14:51:09;4.10;99.90
11093;DHT22;5600;50.864;6.102;2024-01-06T14:54:10;4.00;99.90
11093;DHT22;5600;50.864;6.102;2024-01-06T14:57:11;4.00;99.90
11093;DHT22;5600;50.864;6.102;2024-01-06T15:00:12;3.90;99.90
11093;DHT22;5600;50.864;6.102;2024-01-06T15:03:13;3.90;99.90
11093;DHT22;5600;50.864;6.102;2024-01-06T15:06:14;4.00;99.90
11093;DHT22;5600;50.864;6.102;2024-01-06T15:09:17;3.90;99.90
11093;DHT22;5600;50.864;6.102;2024-01-06T15:12:18;3.90;99.90
11093;DHT22;5600;50.864;6.102;2024-01-06T15:15:19;3.80;99.90
11093;DHT22;5600;50.864;6.102;2024-01-06T15:18:19;3.90;99.90
11093;DHT22;5600;50.864;6.102;2024-01-06T15:21:20;3.90;99.90
11093;DHT22;5600;50.864;6.102;2024-01-06T15:24:23;3.80;99.90
11093;DHT22;5600;50.864;6.102;2024-01-06T15:27:24;3.70;99.90
11093;DHT22;5600;50.864;6.102;2024-01-06T15:30:25;3.80;99.90
11093;DHT22;5600;50.864;6.102;2024-01-06T15:33:25;3.70;99.90
11093;DHT22;5600;50.864;6.102;2024-01-06T15:36:26;3.60;99.90
11093;DHT22;5600;50.864;6.102;2024-01-06T15:39:27;3.70;99.90
11093;DHT22;5600;50.864;6.102;2024-01-06T15:42:28;3.70;99.90
11093;DHT22;5600;50.864;6.102;2024-01-06T15:45:29;3.70;99.90
11093;DHT22;5600;50.864;6.102;2024-01-06T15:48:29;3.70;99.90
11093;DHT22;5600;50.864;6.102;2024-01-06T15:51:31;3.70;99.90
11093;DHT22;5600;50.864;6.102;2024-01-06T15:54:33;3.70;99.90
11093;DHT22;5600;50.864;6.102;2024-01-06T15:57:33;3.70;99.90
11093;DHT22;5600;50.864;6.102;2024-01-06T16:00:34;3.70;99.90
11093;DHT22;5600;50.864;6.102;2024-01-06T16:03:35;3.60;99.90
11093;DHT22;5600;50.864;6.102;2024-01-06T16:06:36;3.70;99.90
11093;DHT22;5600;50.864;6.102;2024-01-06T16:09:36;5.10;99.90
11093;DHT22;5600;50.864;6.102;2024-01-06T16:12:39;3.60;99.90
11093;DHT22;5600;50.864;6.102;2024-01-06T16:15:41;3.70;99.90
11093;DHT22;5600;50.864;6.102;2024-01-06T16:18:43;3.60;99.90
11093;DHT22;5600;50.864;6.102;2024-01-06T16:21:44;3.60;99.90
11093;DHT22;5600;50.864;6.102;2024-01-06T16:24:45;3.70;99.90
11093;DHT22;5600;50.864;6.102;2024-01-06T16:27:46;3.60;99.90
11093;DHT22;5600;50.864;6.102;2024-01-06T16:30:47;3.60;99.90
11093;DHT22;5600;50.864;6.102;2024-01-06T16:33:47;3.60;99.90
11093;DHT22;5600;50.864;6.102;2024-01-06T16:36:48;3.50;99.90
11093;DHT22;5600;50.864;6.102;2024-01-06T16:39:49;3.50;99.90
11093;DHT22;5600;50.864;6.102;2024-01-06T16:42:50;3.40;99.90
11093;DHT22;5600;50.864;6.102;2024-01-06T16:45:52;3.50;99.90
11093;DHT22;5600;50.864;6.102;2024-01-06T16:48:53;3.50;99.90
11093;DHT22;5600;50.864;6.102;2024-01-06T16:51:54;3.50;99.90
11093;DHT22;5600;50.864;6.102;2024-01-06T16:54:55;3.50;99.90
11093;DHT22;5600;50.864;6.102;2024-01-06T16:57:55;3.50;99.90
11093;DHT22;5600;50.864;6.102;2024-01-06T17:01:00;3.50;99.90
11093;DHT22;5600;50.864;6.102;2024-01-06T17:04:00;3.50;99.90
11093;DHT22;5600;50.864;6.102;2024-01-06T17:07:05;3.50;99.90
11093;DHT22;5600;50.864;6.102;2024-01-06T17:10:07;3.40;99.90
11093;DHT22;5600;50.864;6.102;2024-01-06T17:13:08;3.40;99.90
11093;DHT22;5600;50.864;6.102;2024-01-06T17:16:08;3.40;99.90
11093;DHT22;5600;50.864;6.102;2024-01-06T17:19:09;3.40;99.90
11093;DHT22;5600;50.864;6.102;2024-01-06T17:22:10;3.30;99.90
11093;DHT22;5600;50.864;6.102;2024-01-06T17:25:11;4.10;99.90
11093;DHT22;5600;50.864;6.102;2024-01-06T17:28:13;3.30;99.90
11093;DHT22;5600;50.864;6.102;2024-01-06T17:31:14;3.30;99.90
11093;DHT22;5600;50.864;6.102;2024-01-06T17:34:15;3.40;99.90
11093;DHT22;5600;50.864;6.102;2024-01-06T17:37:15;3.40;99.90
11093;DHT22;5600;50.864;6.102;2024-01-06T17:40:16;3.40;99.90
11093;DHT22;5600;50.864;6.102;2024-01-06T17:43:18;3.30;99.90
11093;DHT22;5600;50.864;6.102;2024-01-06T17:46:19;3.40;99.90
11093;DHT22;5600;50.864;6.102;2024-01-06T17:49:21;3.40;99.90
11093;DHT22;5600;50.864;6.102;2024-01-06T17:52:22;3.30;99.90
11093;DHT22;5600;50.864;6.102;2024-01-06T17:55:26;3.30;99.90
11093;DHT22;5600;50.864;6.102;2024-01-06T17:58:28;3.30;99.90
11093;DHT22;5600;50.864;6.102;2024-01-06T18:01:29;3.30;99.90
11093;DHT22;5600;50.864;6.102;2024-01-06T18:04:29;3.40;99.90
11093;DHT22;5600;50.864;6.102;2024-01-06T18:07:30;3.40;99.90
11093;DHT22;5600;50.864;6.102;2024-01-06T18:10:32;3.40;99.90
11093;DHT22;5600;50.864;6.102;2024-01-06T18:13:33;3.30;99.90
11093;DHT22;5600;50.864;6.102;2024-01-06T18:16:34;3.30;99.90
11093;DHT22;5600;50.864;6.102;2024-01-06T18:19:34;3.20;99.90
11093;DHT22;5600;50.864;6.102;2024-01-06T18:22:35;3.20;99.90
11093;DHT22;5600;50.864;6.102;2024-01-06T18:25:36;3.20;99.90
11093;DHT22;5600;50.864;6.102;2024-01-06T18:28:37;3.10;99.90
11093;DHT22;5600;50.864;6.102;2024-01-06T18:31:37;3.10;99.90
11093;DHT22;5600;50.864;6.102;2024-01-06T18:34:38;3.20;99.90
11093;DHT22;5600;50.864;6.102;2024-01-06T18:37:42;3.30;99.90
11093;DHT22;5600;50.864;6.102;2024-01-06T18:40:43;3.30;99.90
11093;DHT22;5600;50.864;6.102;2024-01-06T18:43:44;3.30;99.90
11093;DHT22;5600;50.864;6.102;2024-01-06T18:46:44;3.30;99.90
11093;DHT22;5600;50.864;6.102;2024-01-06T18:49:45;3.30;99.90
11093;DHT22;5600;50.864;6.102;2024-01-06T18:52:46;3.40;99.90
11093;DHT22;5600;50.864;6.102;2024-01-06T18:55:47;3.30;99.90
11093;DHT22;5600;50.864;6.102;2024-01-06T18:58:47;3.20;99.90
11093;DHT22;5600;50.864;6.102;2024-01-06T19:01:48;3.20;99.90
11093;DHT22;5600;50.864;6.102;2024-01-06T19:04:49;3.20;99.90
11093;DHT22;5600;50.864;6.102;2024-01-06T19:07:50;3.10;99.90
11093;DHT22;5600;50.864;6.102;2024-01-06T19:10:50;3.10;99.90
11093;DHT22;5600;50.864;6.102;2024-01-06T19:13:51;3.10;99.90
11093;DHT22;5600;50.864;6.102;2024-01-06T19:16:52;3.10;99.90
11093;DHT22;5600;50.864;6.102;2024-01-06T19:19:52;3.20;99.90
11093;DHT22;5600;50.864;6.102;2024-01-06T19:22:53;3.30;99.90
11093;DHT22;5600;50.864;6.102;2024-01-06T19:25:54;3.30;99.90
11093;DHT22;5600;50.864;6.102;2024-01-06T19:28:54;3.10;99.90
11093;DHT22;5600;50.864;6.102;2024-01-06T19:31:55;3.10;99.90
11093;DHT22;5600;50.864;6.102;2024-01-06T19:34:56;3.00;99.90
11093;DHT22;5600;50.864;6.102;2024-01-06T19:37:58;3.00;99.90
11093;DHT22;5600;50.864;6.102;2024-01-06T19:40:59;2.90;99.90
11093;DHT22;5600;50.864;6.102;2024-01-06T19:44:01;2.90;99.90
11093;DHT22;5600;50.864;6.102;2024-01-06T19:47:02;3.00;99.90